createdAt,value
2022-10-07T00:00:24.635Z,16.80
2022-10-07T00:04:28.105Z,16.70
2022-10-07T00:08:31.646Z,16.70
2022-10-07T00:12:34.619Z,16.60
2022-10-07T00:16:41.030Z,16.50
2022-10-07T00:20:43.984Z,16.50
2022-10-07T00:24:46.873Z,16.40
2022-10-07T00:28:50.381Z,16.40
2022-10-07T00:32:54.340Z,16.40
2022-10-07T00:36:58.749Z,16.40
2022-10-07T00:41:01.920Z,16.40
2022-10-07T00:45:05.426Z,16.20
2022-10-07T00:49:12.083Z,16.20
2022-10-07T00:53:14.731Z,16.00
2022-10-07T00:57:17.668Z,15.90
2022-10-07T01:01:21.366Z,15.80
2022-10-07T01:05:24.190Z,15.80
2022-10-07T01:09:27.340Z,15.80
2022-10-07T01:13:47.393Z,15.80
2022-10-07T01:18:18.806Z,15.80
2022-10-07T01:22:34.401Z,15.80
2022-10-07T01:26:47.226Z,15.80
2022-10-07T01:30:55.152Z,15.80
2022-10-07T01:34:59.677Z,15.70
2022-10-07T01:39:09.052Z,15.50
2022-10-07T01:43:15.784Z,15.50
2022-10-07T01:47:18.871Z,15.40
2022-10-07T01:51:28.878Z,15.40
2022-10-07T01:55:52.242Z,15.30
2022-10-07T02:00:06.576Z,15.30
2022-10-07T02:04:36.218Z,15.30
2022-10-07T02:08:55.383Z,15.20
2022-10-07T02:13:12.582Z,15.20
2022-10-07T02:17:21.741Z,15.20
2022-10-07T02:21:29.388Z,15.00
2022-10-07T02:25:38.177Z,14.90
2022-10-07T02:29:44.529Z,14.90
2022-10-07T02:33:48.095Z,14.80
2022-10-07T02:37:53.498Z,14.80
2022-10-07T02:42:05.877Z,14.80
2022-10-07T02:46:12.179Z,14.80
2022-10-07T02:50:21.153Z,14.70
2022-10-07T02:54:30.666Z,14.60
2022-10-07T02:58:36.157Z,14.60
2022-10-07T03:02:47.145Z,14.50
2022-10-07T03:06:50.333Z,14.50
2022-10-07T03:10:53.751Z,14.50
2022-10-07T03:14:56.941Z,14.50
2022-10-07T03:18:59.815Z,14.40
2022-10-07T03:23:09.545Z,14.40
2022-10-07T03:27:12.595Z,14.40
2022-10-07T03:31:16.019Z,14.30
2022-10-07T03:35:24.460Z,14.30
2022-10-07T03:39:28.473Z,14.20
2022-10-07T03:43:32.289Z,14.10
2022-10-07T03:47:36.242Z,14.10
2022-10-07T03:51:39.380Z,14.10
2022-10-07T03:55:44.443Z,14.00
2022-10-07T03:59:47.576Z,14.00
2022-10-07T04:03:50.549Z,14.00
2022-10-07T04:07:54.427Z,14.00
2022-10-07T04:11:57.346Z,14.00
2022-10-07T04:16:06.527Z,14.00
2022-10-07T04:20:10.717Z,14.00
2022-10-07T04:24:14.877Z,13.90
2022-10-07T04:28:24.545Z,13.90
2022-10-07T04:32:32.437Z,13.80
2022-10-07T04:36:35.396Z,13.80
2022-10-07T04:40:46.796Z,13.80
2022-10-07T04:44:51.607Z,13.80
2022-10-07T04:48:55.154Z,13.90
2022-10-07T04:53:01.587Z,13.80
2022-10-07T04:57:10.202Z,13.80
2022-10-07T05:01:13.527Z,13.80
2022-10-07T05:05:20.469Z,13.80
2022-10-07T05:09:23.553Z,13.70
2022-10-07T05:13:27.929Z,13.60
2022-10-07T05:17:31.697Z,13.60
2022-10-07T05:21:34.667Z,13.60
2022-10-07T05:25:40.151Z,13.60
2022-10-07T05:29:43.988Z,13.60
2022-10-07T05:33:49.536Z,13.60
2022-10-07T05:37:55.053Z,13.60
2022-10-07T05:41:58.689Z,13.60
2022-10-07T05:46:17.607Z,13.60
2022-10-07T05:50:25.822Z,13.60
2022-10-07T05:54:28.993Z,13.60
2022-10-07T05:58:38.827Z,13.70
2022-10-07T06:02:43.370Z,13.70
2022-10-07T06:06:47.086Z,13.70
2022-10-07T06:11:09.117Z,13.70
2022-10-07T06:15:13.413Z,13.70
2022-10-07T06:19:22.827Z,13.80
2022-10-07T06:23:30.538Z,13.80
2022-10-07T06:27:34.898Z,13.80
2022-10-07T06:31:38.123Z,13.90
2022-10-07T06:35:42.617Z,14.00
2022-10-07T06:39:45.442Z,14.00
2022-10-07T06:43:49.277Z,14.20
2022-10-07T06:47:53.295Z,14.50
2022-10-07T06:51:57.935Z,14.80
2022-10-07T06:56:05.747Z,15.10
2022-10-07T07:00:11.823Z,15.40
2022-10-07T07:04:14.994Z,15.60
2022-10-07T07:08:19.110Z,15.60
2022-10-07T07:12:25.555Z,15.80
2022-10-07T07:16:32.005Z,16.00
2022-10-07T07:20:37.374Z,16.40
2022-10-07T07:24:41.121Z,16.70
2022-10-07T07:28:50.312Z,16.90
2022-10-07T07:32:53.205Z,17.20
2022-10-07T07:36:56.150Z,17.50
2022-10-07T07:41:07.178Z,17.80
2022-10-07T07:45:10.413Z,17.90
2022-10-07T07:49:14.448Z,18.00
2022-10-07T07:53:19.009Z,18.10
2022-10-07T07:57:22.364Z,18.20
2022-10-07T08:01:25.463Z,18.30
2022-10-07T08:05:28.415Z,18.50
2022-10-07T08:09:34.357Z,18.60
2022-10-07T08:13:39.821Z,18.90
2022-10-07T08:17:44.146Z,19.20
2022-10-07T08:21:47.298Z,19.40
2022-10-07T08:26:04.396Z,19.50
2022-10-07T08:30:08.879Z,19.50
2022-10-07T08:34:12.443Z,19.60
2022-10-07T08:38:15.568Z,19.80
2022-10-07T08:42:40.572Z,19.90
2022-10-07T08:47:02.205Z,20.10
2022-10-07T08:51:50.390Z,20.20
2022-10-07T08:55:58.020Z,20.40
2022-10-07T09:00:05.620Z,20.50
2022-10-07T09:04:08.305Z,20.70
2022-10-07T09:08:28.872Z,21.00
2022-10-07T09:12:49.932Z,21.30
2022-10-07T09:16:55.042Z,21.50
2022-10-07T09:20:58.186Z,21.70
2022-10-07T09:25:13.956Z,21.90
2022-10-07T09:29:20.527Z,22.20
2022-10-07T09:33:24.636Z,22.50
2022-10-07T09:37:30.612Z,22.60
2022-10-07T09:41:38.421Z,22.70
2022-10-07T09:45:47.021Z,22.90
2022-10-07T09:49:53.153Z,22.80
2022-10-07T09:54:05.701Z,22.90
2022-10-07T09:58:26.400Z,23.20
2022-10-07T10:02:29.407Z,23.50
2022-10-07T10:06:32.622Z,23.70
2022-10-07T10:10:36.662Z,23.60
2022-10-07T10:14:52.385Z,23.70
2022-10-07T10:19:02.352Z,23.90
2022-10-07T10:23:29.104Z,23.90
2022-10-07T10:27:56.532Z,23.90
2022-10-07T10:32:02.239Z,23.80
2022-10-07T10:36:23.777Z,23.80
2022-10-07T10:40:41.320Z,24.00
2022-10-07T10:44:58.744Z,24.00
2022-10-07T10:49:29.365Z,24.20
2022-10-07T10:54:12.467Z,24.40
2022-10-07T10:58:30.593Z,24.50
2022-10-07T11:02:43.809Z,24.50
2022-10-07T11:07:14.964Z,24.80
2022-10-07T11:11:19.917Z,24.90
2022-10-07T11:15:51.726Z,24.90
2022-10-07T11:20:04.737Z,25.00
2022-10-07T11:24:19.165Z,25.10
2022-10-07T11:28:26.902Z,25.30
2022-10-07T11:32:56.006Z,25.10
2022-10-07T11:37:31.755Z,25.20
2022-10-07T11:41:46.400Z,25.30
2022-10-07T11:45:54.425Z,25.40
2022-10-07T11:50:07.893Z,25.50
2022-10-07T11:54:16.433Z,25.70
2022-10-07T11:58:38.045Z,25.60
2022-10-07T12:02:44.176Z,25.70
2022-10-07T12:07:05.856Z,25.60
2022-10-07T12:11:11.514Z,25.70
2022-10-07T12:15:30.341Z,25.80
2022-10-07T12:19:33.585Z,26.00
2022-10-07T12:23:38.215Z,26.20
2022-10-07T12:27:46.942Z,26.10
2022-10-07T12:31:50.221Z,26.00
2022-10-07T12:35:54.717Z,26.00
2022-10-07T12:39:58.981Z,26.00
2022-10-07T12:44:22.745Z,26.00
2022-10-07T12:48:35.118Z,26.00
2022-10-07T12:52:52.188Z,26.10
2022-10-07T12:56:55.139Z,26.20
2022-10-07T13:01:14.362Z,26.00
2022-10-07T13:05:51.389Z,26.00
2022-10-07T13:10:03.313Z,26.30
2022-10-07T13:14:38.514Z,26.50
2022-10-07T13:18:48.386Z,26.60
2022-10-07T13:22:52.028Z,26.70
2022-10-07T13:26:56.260Z,26.80
2022-10-07T13:31:21.165Z,26.60
2022-10-07T13:35:34.064Z,26.50
2022-10-07T13:39:39.667Z,26.50
2022-10-07T13:43:44.520Z,26.30
2022-10-07T13:47:47.629Z,26.30
2022-10-07T13:51:55.446Z,26.30
2022-10-07T13:56:22.232Z,26.30
2022-10-07T14:00:25.929Z,26.30
2022-10-07T14:04:33.118Z,26.40
2022-10-07T14:08:50.712Z,26.50
2022-10-07T14:12:59.989Z,26.50
2022-10-07T14:17:16.705Z,26.50
2022-10-07T14:21:19.688Z,26.50
2022-10-07T14:25:31.432Z,26.50
2022-10-07T14:29:37.894Z,26.50
2022-10-07T14:34:04.027Z,26.50
2022-10-07T14:38:20.692Z,26.60
2022-10-07T14:42:28.728Z,26.60
2022-10-07T14:46:31.843Z,26.60
2022-10-07T14:50:35.986Z,26.70
2022-10-07T14:54:40.662Z,26.70
2022-10-07T14:58:43.487Z,26.70
2022-10-07T15:02:48.013Z,26.80
2022-10-07T15:06:51.246Z,26.80
2022-10-07T15:10:54.095Z,26.80
2022-10-07T15:14:58.365Z,26.70
2022-10-07T15:19:02.161Z,26.50
2022-10-07T15:23:05.773Z,26.40
2022-10-07T15:27:10.010Z,26.30
2022-10-07T15:31:14.221Z,26.10
2022-10-07T15:35:17.064Z,26.00
2022-10-07T15:39:19.769Z,25.90
2022-10-07T15:43:25.400Z,25.80
2022-10-07T15:47:28.284Z,25.70
2022-10-07T15:51:40.177Z,25.60
2022-10-07T15:55:54.948Z,25.50
2022-10-07T15:59:57.730Z,25.50
2022-10-07T16:04:03.324Z,25.30
2022-10-07T16:08:06.444Z,25.30
2022-10-07T16:12:09.225Z,25.10
2022-10-07T16:16:17.753Z,25.00
2022-10-07T16:20:20.645Z,25.00
2022-10-07T16:24:23.662Z,24.90
2022-10-07T16:28:45.283Z,24.80
2022-10-07T16:32:49.567Z,24.70
2022-10-07T16:36:52.605Z,24.50
2022-10-07T16:40:55.304Z,24.30
2022-10-07T16:44:58.363Z,24.10
2022-10-07T16:49:02.984Z,23.80
2022-10-07T16:53:11.921Z,23.50
2022-10-07T16:57:18.080Z,23.20
2022-10-07T17:01:23.811Z,22.90
2022-10-07T17:05:31.550Z,22.60
2022-10-07T17:09:34.393Z,22.40
2022-10-07T17:13:40.492Z,22.10
2022-10-07T17:17:43.700Z,21.90
2022-10-07T17:21:48.067Z,21.60
2022-10-07T17:25:50.825Z,21.50
2022-10-07T17:29:53.921Z,21.30
2022-10-07T17:33:58.744Z,21.30
2022-10-07T17:38:03.093Z,21.20
2022-10-07T17:42:06.010Z,21.10
2022-10-07T17:46:12.896Z,21.10
2022-10-07T17:50:16.182Z,21.00
2022-10-07T17:54:18.883Z,21.00
2022-10-07T17:58:21.655Z,20.90
2022-10-07T18:02:24.761Z,20.80
2022-10-07T18:06:30.332Z,20.70
2022-10-07T18:10:33.290Z,20.50
2022-10-07T18:14:55.523Z,20.50
2022-10-07T18:18:59.739Z,20.50
2022-10-07T18:23:12.205Z,20.40
2022-10-07T18:27:15.638Z,20.30
2022-10-07T18:31:19.604Z,20.20
2022-10-07T18:35:22.617Z,20.10
2022-10-07T18:39:27.811Z,20.10
2022-10-07T18:43:31.855Z,20.10
2022-10-07T18:47:34.946Z,20.00
2022-10-07T18:51:37.929Z,20.00
2022-10-07T18:55:40.729Z,19.90
2022-10-07T18:59:43.551Z,19.80
2022-10-07T19:03:46.519Z,19.70
2022-10-07T19:07:49.775Z,19.50
2022-10-07T19:11:52.629Z,19.40
2022-10-07T19:15:55.613Z,19.20
2022-10-07T19:20:01.153Z,19.10
2022-10-07T19:24:04.552Z,18.90
2022-10-07T19:28:07.348Z,18.80
2022-10-07T19:32:10.240Z,18.60
2022-10-07T19:36:14.947Z,18.50
2022-10-07T19:40:17.912Z,18.50
2022-10-07T19:44:21.093Z,18.30
2022-10-07T19:48:23.814Z,18.20
2022-10-07T19:52:27.627Z,18.10
2022-10-07T19:56:35.004Z,18.00
2022-10-07T20:00:37.698Z,18.00
2022-10-07T20:04:42.174Z,18.00
2022-10-07T20:08:47.069Z,17.90
2022-10-07T20:12:51.601Z,17.90
2022-10-07T20:16:57.587Z,17.80
2022-10-07T20:21:02.147Z,17.80
2022-10-07T20:25:05.977Z,17.70
2022-10-07T20:29:10.336Z,17.70
2022-10-07T20:33:13.061Z,17.60
2022-10-07T20:37:16.624Z,17.50
2022-10-07T20:41:57.483Z,17.50
2022-10-07T20:46:00.834Z,17.50
2022-10-07T20:50:05.857Z,17.50
2022-10-07T20:54:08.555Z,17.50
2022-10-07T20:58:11.273Z,17.50
2022-10-07T21:02:15.752Z,17.40
2022-10-07T21:06:19.008Z,17.40
2022-10-07T21:10:21.969Z,17.20
2022-10-07T21:14:24.761Z,17.20
2022-10-07T21:18:29.896Z,17.10
2022-10-07T21:22:32.962Z,17.10
2022-10-07T21:26:36.918Z,17.00
2022-10-07T21:30:40.229Z,17.00
2022-10-07T21:34:45.214Z,16.90
2022-10-07T21:38:53.510Z,16.90
2022-10-07T21:42:56.248Z,16.90
2022-10-07T21:47:00.102Z,16.90
2022-10-07T21:51:08.600Z,16.80
2022-10-07T21:55:12.302Z,16.80
2022-10-07T21:59:15.411Z,16.80
2022-10-07T22:03:18.704Z,16.80
2022-10-07T22:07:40.131Z,16.80
2022-10-07T22:11:43.041Z,16.80
2022-10-07T22:15:45.728Z,16.70
2022-10-07T22:19:49.452Z,16.70
2022-10-07T22:23:59.228Z,16.70
2022-10-07T22:28:02.493Z,16.70
2022-10-07T22:32:06.173Z,16.80
2022-10-07T22:36:12.072Z,16.80
2022-10-07T22:40:14.808Z,16.70
2022-10-07T22:44:17.548Z,16.70
2022-10-07T22:48:20.323Z,16.70
2022-10-07T22:52:23.033Z,16.50
2022-10-07T22:56:28.259Z,16.50
2022-10-07T23:00:33.254Z,16.50
2022-10-07T23:04:37.433Z,16.50
2022-10-07T23:08:40.481Z,16.40
2022-10-07T23:12:43.750Z,16.40
2022-10-07T23:16:46.622Z,16.50
2022-10-07T23:21:03.271Z,16.40
2022-10-07T23:25:06.733Z,16.50
2022-10-07T23:29:11.702Z,16.50
2022-10-07T23:33:16.472Z,16.50
2022-10-07T23:37:19.232Z,16.50
2022-10-07T23:41:27.214Z,16.50
2022-10-07T23:45:30.037Z,16.60
2022-10-07T23:49:32.814Z,16.60
2022-10-07T23:53:35.970Z,16.60
2022-10-07T23:57:39.908Z,16.50
